sensor_id;sensor_type;location;lat;lon;timestamp;P1;durP1;ratioP1;P2;durP2;ratioP2
22851;SDS011;11592;45.460;9.240;2022-11-20T00:00:55;62.53;;;29.17;;
22851;SDS011;11592;45.460;9.240;2022-11-20T00:03:22;58.72;;;27.10;;
22851;SDS011;11592;45.460;9.240;2022-11-20T00:05:49;60.10;;;26.85;;
22851;SDS011;11592;45.460;9.240;2022-11-20T00:08:16;63.22;;;28.67;;
22851;SDS011;11592;45.460;9.240;2022-11-20T00:10:42;57.25;;;27.27;;
22851;SDS011;11592;45.460;9.240;2022-11-20T00:13:09;53.42;;;26.52;;
22851;SDS011;11592;45.460;9.240;2022-11-20T00:15:36;51.65;;;26.15;;
22851;SDS011;11592;45.460;9.240;2022-11-20T00:18:03;60.67;;;27.55;;
22851;SDS011;11592;45.460;9.240;2022-11-20T00:20:29;57.03;;;26.42;;
22851;SDS011;11592;45.460;9.240;2022-11-20T00:22:56;52.47;;;25.45;;
22851;SDS011;11592;45.460;9.240;2022-11-20T00:25:23;57.47;;;24.75;;
22851;SDS011;11592;45.460;9.240;2022-11-20T00:27:50;49.70;;;25.63;;
22851;SDS011;11592;45.460;9.240;2022-11-20T00:30:17;53.63;;;25.58;;
22851;SDS011;11592;45.460;9.240;2022-11-20T00:32:44;50.95;;;26.02;;
22851;SDS011;11592;45.460;9.240;2022-11-20T00:35:11;49.03;;;26.38;;
22851;SDS011;11592;45.460;9.240;2022-11-20T00:37:38;49.38;;;24.50;;
22851;SDS011;11592;45.460;9.240;2022-11-20T00:40:05;47.40;;;25.77;;
22851;SDS011;11592;45.460;9.240;2022-11-20T00:42:32;44.08;;;23.88;;
22851;SDS011;11592;45.460;9.240;2022-11-20T00:45:00;48.08;;;24.90;;
22851;SDS011;11592;45.460;9.240;2022-11-20T00:47:27;46.80;;;24.63;;
22851;SDS011;11592;45.460;9.240;2022-11-20T00:49:53;49.65;;;23.67;;
22851;SDS011;11592;45.460;9.240;2022-11-20T00:52:20;44.58;;;22.98;;
22851;SDS011;11592;45.460;9.240;2022-11-20T00:54:47;46.33;;;23.17;;
22851;SDS011;11592;45.460;9.240;2022-11-20T00:57:13;45.47;;;22.33;;
22851;SDS011;11592;45.460;9.240;2022-11-20T00:59:40;43.05;;;23.25;;
22851;SDS011;11592;45.460;9.240;2022-11-20T01:02:07;39.75;;;21.95;;
22851;SDS011;11592;45.460;9.240;2022-11-20T01:04:34;35.42;;;19.75;;
22851;SDS011;11592;45.460;9.240;2022-11-20T01:07:00;33.60;;;19.20;;
22851;SDS011;11592;45.460;9.240;2022-11-20T01:09:27;30.92;;;19.10;;
22851;SDS011;11592;45.460;9.240;2022-11-20T01:11:54;33.78;;;17.80;;
22851;SDS011;11592;45.460;9.240;2022-11-20T01:14:21;30.75;;;18.60;;
22851;SDS011;11592;45.460;9.240;2022-11-20T01:16:48;27.85;;;18.38;;
22851;SDS011;11592;45.460;9.240;2022-11-20T01:19:17;30.63;;;19.38;;
22851;SDS011;11592;45.460;9.240;2022-11-20T01:21:50;33.30;;;19.10;;
22851;SDS011;11592;45.460;9.240;2022-11-20T01:24:19;28.88;;;17.13;;
22851;SDS011;11592;45.460;9.240;2022-11-20T01:26:48;29.42;;;18.00;;
22851;SDS011;11592;45.460;9.240;2022-11-20T01:29:17;29.73;;;16.88;;
22851;SDS011;11592;45.460;9.240;2022-11-20T01:31:53;29.58;;;18.60;;
22851;SDS011;11592;45.460;9.240;2022-11-20T01:34:20;27.10;;;17.20;;
22851;SDS011;11592;45.460;9.240;2022-11-20T01:36:48;29.42;;;17.65;;
22851;SDS011;11592;45.460;9.240;2022-11-20T01:39:20;26.70;;;17.90;;
22851;SDS011;11592;45.460;9.240;2022-11-20T01:41:50;26.95;;;16.70;;
22851;SDS011;11592;45.460;9.240;2022-11-20T01:44:55;28.92;;;17.00;;
22851;SDS011;11592;45.460;9.240;2022-11-20T01:47:57;28.85;;;18.15;;
22851;SDS011;11592;45.460;9.240;2022-11-20T01:50:17;31.27;;;17.55;;
22851;SDS011;11592;45.460;9.240;2022-11-20T01:52:57;28.40;;;16.88;;
22851;SDS011;11592;45.460;9.240;2022-11-20T01:55:28;23.63;;;16.33;;
22851;SDS011;11592;45.460;9.240;2022-11-20T01:58:02;25.83;;;17.17;;
22851;SDS011;11592;45.460;9.240;2022-11-20T02:00:30;29.75;;;18.50;;
22851;SDS011;11592;45.460;9.240;2022-11-20T02:02:57;30.30;;;18.40;;
22851;SDS011;11592;45.460;9.240;2022-11-20T02:07:59;33.60;;;19.77;;
22851;SDS011;11592;45.460;9.240;2022-11-20T02:10:26;34.33;;;19.98;;
22851;SDS011;11592;45.460;9.240;2022-11-20T02:12:54;36.28;;;20.23;;
22851;SDS011;11592;45.460;9.240;2022-11-20T02:15:39;33.42;;;19.42;;
22851;SDS011;11592;45.460;9.240;2022-11-20T02:18:07;30.13;;;17.80;;
22851;SDS011;11592;45.460;9.240;2022-11-20T02:20:35;27.50;;;17.40;;
22851;SDS011;11592;45.460;9.240;2022-11-20T02:23:05;29.52;;;18.48;;
22851;SDS011;11592;45.460;9.240;2022-11-20T02:25:38;32.13;;;18.50;;
22851;SDS011;11592;45.460;9.240;2022-11-20T02:28:07;31.80;;;18.70;;
22851;SDS011;11592;45.460;9.240;2022-11-20T02:30:33;33.88;;;19.00;;
22851;SDS011;11592;45.460;9.240;2022-11-20T02:33:00;28.55;;;18.58;;
22851;SDS011;11592;45.460;9.240;2022-11-20T02:37:54;33.15;;;18.67;;
22851;SDS011;11592;45.460;9.240;2022-11-20T02:40:22;32.45;;;19.75;;
22851;SDS011;11592;45.460;9.240;2022-11-20T02:42:56;30.63;;;18.63;;
22851;SDS011;11592;45.460;9.240;2022-11-20T02:45:24;34.35;;;19.50;;
22851;SDS011;11592;45.460;9.240;2022-11-20T02:47:51;33.65;;;19.35;;
22851;SDS011;11592;45.460;9.240;2022-11-20T02:50:18;31.30;;;17.48;;
22851;SDS011;11592;45.460;9.240;2022-11-20T02:52:45;34.13;;;18.35;;
22851;SDS011;11592;45.460;9.240;2022-11-20T02:55:12;27.50;;;18.05;;
22851;SDS011;11592;45.460;9.240;2022-11-20T02:57:39;37.92;;;20.27;;
22851;SDS011;11592;45.460;9.240;2022-11-20T03:00:06;31.42;;;19.17;;
22851;SDS011;11592;45.460;9.240;2022-11-20T03:02:34;32.58;;;18.70;;
22851;SDS011;11592;45.460;9.240;2022-11-20T03:05:01;30.73;;;17.50;;
22851;SDS011;11592;45.460;9.240;2022-11-20T03:07:27;28.35;;;16.92;;
22851;SDS011;11592;45.460;9.240;2022-11-20T03:09:54;30.25;;;17.75;;
22851;SDS011;11592;45.460;9.240;2022-11-20T03:12:21;27.88;;;16.95;;
22851;SDS011;11592;45.460;9.240;2022-11-20T03:14:49;31.10;;;18.23;;
22851;SDS011;11592;45.460;9.240;2022-11-20T03:17:18;28.45;;;17.73;;
22851;SDS011;11592;45.460;9.240;2022-11-20T03:19:45;30.00;;;18.50;;
22851;SDS011;11592;45.460;9.240;2022-11-20T03:22:12;32.42;;;18.52;;
22851;SDS011;11592;45.460;9.240;2022-11-20T03:24:39;29.70;;;18.13;;
22851;SDS011;11592;45.460;9.240;2022-11-20T03:27:06;35.20;;;17.02;;
22851;SDS011;11592;45.460;9.240;2022-11-20T03:29:32;30.77;;;17.85;;
22851;SDS011;11592;45.460;9.240;2022-11-20T03:32:00;29.05;;;16.95;;
22851;SDS011;11592;45.460;9.240;2022-11-20T03:34:27;28.08;;;16.88;;
22851;SDS011;11592;45.460;9.240;2022-11-20T03:36:54;28.55;;;16.45;;
22851;SDS011;11592;45.460;9.240;2022-11-20T03:39:21;29.33;;;16.70;;
22851;SDS011;11592;45.460;9.240;2022-11-20T03:41:48;30.17;;;16.75;;
22851;SDS011;11592;45.460;9.240;2022-11-20T03:44:15;30.27;;;16.45;;
22851;SDS011;11592;45.460;9.240;2022-11-20T03:46:42;28.55;;;16.70;;
22851;SDS011;11592;45.460;9.240;2022-11-20T03:49:08;31.25;;;17.20;;
22851;SDS011;11592;45.460;9.240;2022-11-20T03:51:35;30.55;;;17.65;;
22851;SDS011;11592;45.460;9.240;2022-11-20T03:54:04;25.70;;;16.55;;
22851;SDS011;11592;45.460;9.240;2022-11-20T03:56:33;30.60;;;17.10;;
22851;SDS011;11592;45.460;9.240;2022-11-20T03:59:03;29.35;;;16.92;;
22851;SDS011;11592;45.460;9.240;2022-11-20T04:01:31;27.27;;;17.92;;
22851;SDS011;11592;45.460;9.240;2022-11-20T04:04:02;29.95;;;16.70;;
22851;SDS011;11592;45.460;9.240;2022-11-20T04:06:32;26.75;;;16.55;;
22851;SDS011;11592;45.460;9.240;2022-11-20T04:09:01;31.50;;;17.85;;
22851;SDS011;11592;45.460;9.240;2022-11-20T04:11:31;32.65;;;18.25;;
22851;SDS011;11592;45.460;9.240;2022-11-20T04:14:03;27.70;;;16.40;;
22851;SDS011;11592;45.460;9.240;2022-11-20T04:16:32;29.70;;;17.00;;
22851;SDS011;11592;45.460;9.240;2022-11-20T04:19:02;32.80;;;17.48;;
22851;SDS011;11592;45.460;9.240;2022-11-20T04:21:30;28.63;;;17.48;;
22851;SDS011;11592;45.460;9.240;2022-11-20T04:23:57;31.40;;;17.42;;
22851;SDS011;11592;45.460;9.240;2022-11-20T04:26:25;30.15;;;16.55;;
22851;SDS011;11592;45.460;9.240;2022-11-20T04:28:53;27.17;;;15.63;;
22851;SDS011;11592;45.460;9.240;2022-11-20T04:31:22;26.23;;;16.30;;
22851;SDS011;11592;45.460;9.240;2022-11-20T04:33:50;29.25;;;16.98;;
22851;SDS011;11592;45.460;9.240;2022-11-20T04:36:22;33.28;;;18.00;;
22851;SDS011;11592;45.460;9.240;2022-11-20T04:38:53;29.23;;;17.33;;
22851;SDS011;11592;45.460;9.240;2022-11-20T04:41:23;33.75;;;18.10;;
22851;SDS011;11592;45.460;9.240;2022-11-20T04:43:53;31.98;;;18.23;;
22851;SDS011;11592;45.460;9.240;2022-11-20T04:46:41;31.83;;;17.10;;
22851;SDS011;11592;45.460;9.240;2022-11-20T04:49:09;27.33;;;16.98;;
22851;SDS011;11592;45.460;9.240;2022-11-20T04:51:37;27.90;;;16.17;;
22851;SDS011;11592;45.460;9.240;2022-11-20T04:54:04;34.35;;;16.67;;
22851;SDS011;11592;45.460;9.240;2022-11-20T04:56:31;30.50;;;16.40;;
22851;SDS011;11592;45.460;9.240;2022-11-20T04:59:01;30.20;;;16.85;;
22851;SDS011;11592;45.460;9.240;2022-11-20T05:01:28;30.92;;;16.67;;
22851;SDS011;11592;45.460;9.240;2022-11-20T05:03:55;31.38;;;16.77;;
22851;SDS011;11592;45.460;9.240;2022-11-20T05:06:22;28.13;;;16.15;;
22851;SDS011;11592;45.460;9.240;2022-11-20T05:08:49;29.58;;;16.98;;
22851;SDS011;11592;45.460;9.240;2022-11-20T05:11:17;29.65;;;16.27;;
22851;SDS011;11592;45.460;9.240;2022-11-20T05:13:47;29.23;;;15.73;;
22851;SDS011;11592;45.460;9.240;2022-11-20T05:16:17;29.27;;;16.45;;
22851;SDS011;11592;45.460;9.240;2022-11-20T05:18:45;28.42;;;15.95;;
22851;SDS011;11592;45.460;9.240;2022-11-20T05:21:12;27.95;;;16.92;;
22851;SDS011;11592;45.460;9.240;2022-11-20T05:23:43;32.33;;;16.90;;
22851;SDS011;11592;45.460;9.240;2022-11-20T05:26:15;29.60;;;16.55;;
22851;SDS011;11592;45.460;9.240;2022-11-20T05:28:47;27.42;;;16.17;;
22851;SDS011;11592;45.460;9.240;2022-11-20T05:31:16;28.27;;;16.73;;
22851;SDS011;11592;45.460;9.240;2022-11-20T05:33:51;31.17;;;16.67;;
22851;SDS011;11592;45.460;9.240;2022-11-20T05:36:18;28.20;;;16.95;;
22851;SDS011;11592;45.460;9.240;2022-11-20T05:38:45;26.92;;;15.68;;
22851;SDS011;11592;45.460;9.240;2022-11-20T05:41:17;25.38;;;15.10;;
22851;SDS011;11592;45.460;9.240;2022-11-20T05:43:45;28.00;;;15.93;;
22851;SDS011;11592;45.460;9.240;2022-11-20T05:46:14;25.13;;;15.52;;
22851;SDS011;11592;45.460;9.240;2022-11-20T05:48:42;32.65;;;17.17;;
22851;SDS011;11592;45.460;9.240;2022-11-20T05:51:11;26.15;;;14.93;;
22851;SDS011;11592;45.460;9.240;2022-11-20T05:53:40;28.83;;;15.55;;
22851;SDS011;11592;45.460;9.240;2022-11-20T05:56:14;23.75;;;15.77;;
22851;SDS011;11592;45.460;9.240;2022-11-20T05:58:43;27.27;;;15.27;;
22851;SDS011;11592;45.460;9.240;2022-11-20T06:01:21;26.65;;;15.13;;
22851;SDS011;11592;45.460;9.240;2022-11-20T06:03:50;24.40;;;14.65;;
22851;SDS011;11592;45.460;9.240;2022-11-20T06:06:19;26.63;;;15.68;;
22851;SDS011;11592;45.460;9.240;2022-11-20T06:08:46;26.73;;;15.20;;
22851;SDS011;11592;45.460;9.240;2022-11-20T06:11:14;23.20;;;13.88;;
22851;SDS011;11592;45.460;9.240;2022-11-20T06:13:41;26.30;;;14.77;;
22851;SDS011;11592;45.460;9.240;2022-11-20T06:16:09;27.98;;;15.68;;
22851;SDS011;11592;45.460;9.240;2022-11-20T06:18:37;26.70;;;15.95;;
22851;SDS011;11592;45.460;9.240;2022-11-20T06:21:09;23.10;;;14.07;;
22851;SDS011;11592;45.460;9.240;2022-11-20T06:23:37;23.58;;;14.50;;
22851;SDS011;11592;45.460;9.240;2022-11-20T06:26:04;23.70;;;13.18;;
22851;SDS011;11592;45.460;9.240;2022-11-20T06:28:33;26.67;;;15.07;;
22851;SDS011;11592;45.460;9.240;2022-11-20T06:31:00;23.00;;;14.68;;
22851;SDS011;11592;45.460;9.240;2022-11-20T06:33:27;24.02;;;14.30;;
22851;SDS011;11592;45.460;9.240;2022-11-20T06:35:58;22.33;;;13.10;;
22851;SDS011;11592;45.460;9.240;2022-11-20T06:38:32;25.30;;;14.43;;
22851;SDS011;11592;45.460;9.240;2022-11-20T06:40:59;23.25;;;13.80;;
22851;SDS011;11592;45.460;9.240;2022-11-20T06:43:28;26.73;;;15.23;;
22851;SDS011;11592;45.460;9.240;2022-11-20T06:45:56;23.50;;;14.38;;
22851;SDS011;11592;45.460;9.240;2022-11-20T06:48:25;26.48;;;14.35;;
22851;SDS011;11592;45.460;9.240;2022-11-20T06:50:53;21.55;;;13.98;;
22851;SDS011;11592;45.460;9.240;2022-11-20T06:53:19;22.08;;;14.57;;
22851;SDS011;11592;45.460;9.240;2022-11-20T06:55:47;24.02;;;14.13;;
22851;SDS011;11592;45.460;9.240;2022-11-20T06:58:14;24.50;;;14.43;;
22851;SDS011;11592;45.460;9.240;2022-11-20T07:00:42;20.92;;;13.73;;
22851;SDS011;11592;45.460;9.240;2022-11-20T07:03:10;25.58;;;14.20;;
22851;SDS011;11592;45.460;9.240;2022-11-20T07:05:37;22.45;;;13.20;;
22851;SDS011;11592;45.460;9.240;2022-11-20T07:08:04;26.55;;;15.20;;
22851;SDS011;11592;45.460;9.240;2022-11-20T07:10:32;25.15;;;13.77;;
22851;SDS011;11592;45.460;9.240;2022-11-20T07:12:59;25.83;;;14.73;;
22851;SDS011;11592;45.460;9.240;2022-11-20T07:15:26;22.63;;;14.50;;
22851;SDS011;11592;45.460;9.240;2022-11-20T07:17:53;24.20;;;14.48;;
22851;SDS011;11592;45.460;9.240;2022-11-20T07:20:20;24.10;;;14.50;;
22851;SDS011;11592;45.460;9.240;2022-11-20T07:22:46;24.27;;;14.00;;
22851;SDS011;11592;45.460;9.240;2022-11-20T07:25:23;23.00;;;13.63;;
22851;SDS011;11592;45.460;9.240;2022-11-20T07:27:57;24.38;;;14.05;;
22851;SDS011;11592;45.460;9.240;2022-11-20T07:30:26;22.52;;;13.48;;
22851;SDS011;11592;45.460;9.240;2022-11-20T07:32:54;21.33;;;13.75;;
22851;SDS011;11592;45.460;9.240;2022-11-20T07:35:23;22.23;;;13.45;;
22851;SDS011;11592;45.460;9.240;2022-11-20T07:37:50;19.92;;;13.07;;
22851;SDS011;11592;45.460;9.240;2022-11-20T07:40:17;21.08;;;12.75;;
22851;SDS011;11592;45.460;9.240;2022-11-20T07:42:51;23.65;;;14.13;;
22851;SDS011;11592;45.460;9.240;2022-11-20T07:45:19;21.45;;;13.00;;
22851;SDS011;11592;45.460;9.240;2022-11-20T07:47:47;23.10;;;13.98;;
22851;SDS011;11592;45.460;9.240;2022-11-20T07:50:14;22.20;;;13.93;;
22851;SDS011;11592;45.460;9.240;2022-11-20T07:52:41;23.50;;;13.27;;
22851;SDS011;11592;45.460;9.240;2022-11-20T07:55:08;23.83;;;13.85;;
22851;SDS011;11592;45.460;9.240;2022-11-20T07:57:36;23.98;;;14.60;;
22851;SDS011;11592;45.460;9.240;2022-11-20T08:00:03;21.67;;;13.20;;
22851;SDS011;11592;45.460;9.240;2022-11-20T08:02:31;23.33;;;13.57;;
22851;SDS011;11592;45.460;9.240;2022-11-20T08:04:58;23.35;;;13.32;;
22851;SDS011;11592;45.460;9.240;2022-11-20T08:07:25;23.35;;;13.57;;
22851;SDS011;11592;45.460;9.240;2022-11-20T08:09:52;28.23;;;14.77;;
22851;SDS011;11592;45.460;9.240;2022-11-20T08:12:19;24.48;;;13.55;;
22851;SDS011;11592;45.460;9.240;2022-11-20T08:15:06;23.42;;;13.88;;
22851;SDS011;11592;45.460;9.240;2022-11-20T08:17:38;21.77;;;13.05;;
22851;SDS011;11592;45.460;9.240;2022-11-20T08:20:05;23.83;;;13.35;;
22851;SDS011;11592;45.460;9.240;2022-11-20T08:22:32;21.45;;;13.52;;
22851;SDS011;11592;45.460;9.240;2022-11-20T08:24:59;22.90;;;13.88;;
22851;SDS011;11592;45.460;9.240;2022-11-20T08:27:26;24.10;;;13.90;;
22851;SDS011;11592;45.460;9.240;2022-11-20T08:29:53;26.75;;;15.00;;
22851;SDS011;11592;45.460;9.240;2022-11-20T08:32:20;20.80;;;13.80;;
22851;SDS011;11592;45.460;9.240;2022-11-20T08:34:46;23.25;;;14.30;;
22851;SDS011;11592;45.460;9.240;2022-11-20T08:37:13;22.73;;;13.88;;
22851;SDS011;11592;45.460;9.240;2022-11-20T08:39:40;26.05;;;15.43;;
22851;SDS011;11592;45.460;9.240;2022-11-20T08:42:07;25.17;;;13.55;;
22851;SDS011;11592;45.460;9.240;2022-11-20T08:44:34;23.00;;;14.48;;
22851;SDS011;11592;45.460;9.240;2022-11-20T08:47:01;23.00;;;14.30;;
22851;SDS011;11592;45.460;9.240;2022-11-20T08:49:28;29.23;;;15.98;;
22851;SDS011;11592;45.460;9.240;2022-11-20T08:51:54;26.23;;;15.95;;
22851;SDS011;11592;45.460;9.240;2022-11-20T08:54:21;24.85;;;14.90;;
22851;SDS011;11592;45.460;9.240;2022-11-20T08:56:48;28.52;;;14.68;;
22851;SDS011;11592;45.460;9.240;2022-11-20T08:59:15;26.13;;;14.65;;
22851;SDS011;11592;45.460;9.240;2022-11-20T09:02:02;26.35;;;14.50;;
22851;SDS011;11592;45.460;9.240;2022-11-20T09:04:29;25.38;;;14.90;;
22851;SDS011;11592;45.460;9.240;2022-11-20T09:06:56;26.83;;;15.90;;
22851;SDS011;11592;45.460;9.240;2022-11-20T09:09:22;25.05;;;15.57;;
22851;SDS011;11592;45.460;9.240;2022-11-20T09:11:50;26.73;;;14.52;;
22851;SDS011;11592;45.460;9.240;2022-11-20T09:14:17;25.05;;;14.65;;
22851;SDS011;11592;45.460;9.240;2022-11-20T09:16:44;20.80;;;13.38;;
22851;SDS011;11592;45.460;9.240;2022-11-20T09:19:11;22.60;;;13.30;;
22851;SDS011;11592;45.460;9.240;2022-11-20T09:21:58;20.00;;;13.10;;
22851;SDS011;11592;45.460;9.240;2022-11-20T09:24:26;22.05;;;13.88;;
22851;SDS011;11592;45.460;9.240;2022-11-20T09:26:54;23.15;;;12.75;;
22851;SDS011;11592;45.460;9.240;2022-11-20T09:29:20;18.00;;;10.77;;
22851;SDS011;11592;45.460;9.240;2022-11-20T09:31:48;13.10;;;9.65;;
22851;SDS011;11592;45.460;9.240;2022-11-20T09:34:15;15.48;;;8.35;;
22851;SDS011;11592;45.460;9.240;2022-11-20T09:36:42;14.27;;;8.60;;
22851;SDS011;11592;45.460;9.240;2022-11-20T09:39:09;15.05;;;8.27;;
22851;SDS011;11592;45.460;9.240;2022-11-20T09:47:05;13.90;;;8.10;;
22851;SDS011;11592;45.460;9.240;2022-11-20T09:57:36;12.55;;;7.68;;
22851;SDS011;11592;45.460;9.240;2022-11-20T10:00:09;10.43;;;7.15;;
22851;SDS011;11592;45.460;9.240;2022-11-20T10:02:42;15.90;;;7.38;;
22851;SDS011;11592;45.460;9.240;2022-11-20T10:08:17;12.35;;;7.53;;
22851;SDS011;11592;45.460;9.240;2022-11-20T10:10:54;13.73;;;8.13;;
22851;SDS011;11592;45.460;9.240;2022-11-20T10:16:20;14.75;;;8.20;;
22851;SDS011;11592;45.460;9.240;2022-11-20T10:19:23;14.80;;;8.82;;
22851;SDS011;11592;45.460;9.240;2022-11-20T10:22:04;10.95;;;7.03;;
22851;SDS011;11592;45.460;9.240;2022-11-20T10:24:57;11.75;;;7.35;;
22851;SDS011;11592;45.460;9.240;2022-11-20T10:30:12;13.13;;;7.35;;
22851;SDS011;11592;45.460;9.240;2022-11-20T10:32:43;14.98;;;8.20;;
22851;SDS011;11592;45.460;9.240;2022-11-20T10:38:11;13.50;;;7.28;;
22851;SDS011;11592;45.460;9.240;2022-11-20T10:40:53;13.35;;;7.53;;
22851;SDS011;11592;45.460;9.240;2022-11-20T10:43:43;10.30;;;6.57;;
22851;SDS011;11592;45.460;9.240;2022-11-20T10:46:20;11.23;;;7.00;;
22851;SDS011;11592;45.460;9.240;2022-11-20T10:48:48;10.45;;;6.32;;
22851;SDS011;11592;45.460;9.240;2022-11-20T10:56:46;12.90;;;7.05;;
22851;SDS011;11592;45.460;9.240;2022-11-20T11:05:14;10.93;;;6.53;;
22851;SDS011;11592;45.460;9.240;2022-11-20T11:07:43;7.45;;;5.90;;
22851;SDS011;11592;45.460;9.240;2022-11-20T11:10:58;10.05;;;6.18;;
22851;SDS011;11592;45.460;9.240;2022-11-20T11:13:21;9.63;;;5.88;;
22851;SDS011;11592;45.460;9.240;2022-11-20T11:15:50;9.25;;;5.80;;
22851;SDS011;11592;45.460;9.240;2022-11-20T11:18:28;11.50;;;6.50;;
22851;SDS011;11592;45.460;9.240;2022-11-20T11:20:57;9.02;;;6.53;;
22851;SDS011;11592;45.460;9.240;2022-11-20T11:23:28;10.07;;;6.00;;
22851;SDS011;11592;45.460;9.240;2022-11-20T11:26:05;9.27;;;6.43;;
22851;SDS011;11592;45.460;9.240;2022-11-20T11:28:59;9.93;;;5.57;;
22851;SDS011;11592;45.460;9.240;2022-11-20T11:31:28;8.57;;;5.80;;
22851;SDS011;11592;45.460;9.240;2022-11-20T11:34:05;11.18;;;5.70;;
22851;SDS011;11592;45.460;9.240;2022-11-20T11:36:34;10.20;;;5.97;;
22851;SDS011;11592;45.460;9.240;2022-11-20T11:39:03;11.07;;;6.05;;
22851;SDS011;11592;45.460;9.240;2022-11-20T11:41:32;8.63;;;6.57;;
22851;SDS011;11592;45.460;9.240;2022-11-20T11:44:13;7.90;;;6.28;;
22851;SDS011;11592;45.460;9.240;2022-11-20T11:47:00;8.95;;;6.78;;
22851;SDS011;11592;45.460;9.240;2022-11-20T11:49:29;10.30;;;6.47;;
22851;SDS011;11592;45.460;9.240;2022-11-20T11:54:47;12.23;;;6.70;;
22851;SDS011;11592;45.460;9.240;2022-11-20T12:05:16;9.52;;;7.22;;
22851;SDS011;11592;45.460;9.240;2022-11-20T12:10:22;11.45;;;7.90;;
22851;SDS011;11592;45.460;9.240;2022-11-20T12:13:02;9.95;;;7.60;;
22851;SDS011;11592;45.460;9.240;2022-11-20T12:15:36;9.90;;;7.32;;
22851;SDS011;11592;45.460;9.240;2022-11-20T12:18:09;9.10;;;6.70;;
22851;SDS011;11592;45.460;9.240;2022-11-20T12:20:45;9.80;;;7.33;;
22851;SDS011;11592;45.460;9.240;2022-11-20T12:23:42;13.23;;;7.88;;
22851;SDS011;11592;45.460;9.240;2022-11-20T12:28:57;11.85;;;7.35;;
22851;SDS011;11592;45.460;9.240;2022-11-20T12:31:42;9.60;;;6.43;;
22851;SDS011;11592;45.460;9.240;2022-11-20T12:39:43;11.82;;;7.60;;
22851;SDS011;11592;45.460;9.240;2022-11-20T12:53:43;10.00;;;7.82;;
22851;SDS011;11592;45.460;9.240;2022-11-20T13:07:39;11.27;;;7.75;;
22851;SDS011;11592;45.460;9.240;2022-11-20T13:10:13;9.40;;;6.57;;
22851;SDS011;11592;45.460;9.240;2022-11-20T13:13:08;10.98;;;7.30;;
22851;SDS011;11592;45.460;9.240;2022-11-20T13:18:38;10.30;;;7.40;;
22851;SDS011;11592;45.460;9.240;2022-11-20T13:21:18;13.38;;;8.25;;
22851;SDS011;11592;45.460;9.240;2022-11-20T13:23:47;7.68;;;6.30;;
22851;SDS011;11592;45.460;9.240;2022-11-20T13:26:15;10.20;;;6.38;;
22851;SDS011;11592;45.460;9.240;2022-11-20T13:28:59;7.68;;;5.65;;
22851;SDS011;11592;45.460;9.240;2022-11-20T13:31:45;9.10;;;6.47;;
22851;SDS011;11592;45.460;9.240;2022-11-20T13:34:22;13.00;;;7.07;;
22851;SDS011;11592;45.460;9.240;2022-11-20T13:36:55;7.93;;;5.68;;
22851;SDS011;11592;45.460;9.240;2022-11-20T13:39:24;9.63;;;5.95;;
22851;SDS011;11592;45.460;9.240;2022-11-20T13:41:56;8.18;;;5.88;;
22851;SDS011;11592;45.460;9.240;2022-11-20T13:47:28;7.32;;;6.13;;
22851;SDS011;11592;45.460;9.240;2022-11-20T13:49:57;8.25;;;6.00;;
22851;SDS011;11592;45.460;9.240;2022-11-20T13:55:23;7.88;;;5.45;;
22851;SDS011;11592;45.460;9.240;2022-11-20T14:01:08;7.28;;;5.35;;
22851;SDS011;11592;45.460;9.240;2022-11-20T14:03:47;8.48;;;5.53;;
22851;SDS011;11592;45.460;9.240;2022-11-20T14:06:33;8.30;;;5.70;;
22851;SDS011;11592;45.460;9.240;2022-11-20T14:09:27;14.25;;;5.55;;
22851;SDS011;11592;45.460;9.240;2022-11-20T14:11:56;11.88;;;5.07;;
22851;SDS011;11592;45.460;9.240;2022-11-20T14:14:27;8.13;;;4.78;;
22851;SDS011;11592;45.460;9.240;2022-11-20T14:17:09;8.15;;;5.07;;
22851;SDS011;11592;45.460;9.240;2022-11-20T14:19:49;10.48;;;5.28;;
22851;SDS011;11592;45.460;9.240;2022-11-20T14:25:00;7.65;;;5.20;;
22851;SDS011;11592;45.460;9.240;2022-11-20T14:27:32;8.98;;;4.90;;
22851;SDS011;11592;45.460;9.240;2022-11-20T14:30:04;6.63;;;4.40;;
22851;SDS011;11592;45.460;9.240;2022-11-20T14:32:31;7.68;;;5.28;;
22851;SDS011;11592;45.460;9.240;2022-11-20T14:35:08;5.78;;;3.97;;
22851;SDS011;11592;45.460;9.240;2022-11-20T14:37:39;5.90;;;3.88;;
22851;SDS011;11592;45.460;9.240;2022-11-20T14:42:55;5.65;;;3.13;;
22851;SDS011;11592;45.460;9.240;2022-11-20T14:45:23;7.80;;;3.15;;
22851;SDS011;11592;45.460;9.240;2022-11-20T14:47:51;5.60;;;2.72;;
22851;SDS011;11592;45.460;9.240;2022-11-20T14:50:27;4.80;;;2.80;;
22851;SDS011;11592;45.460;9.240;2022-11-20T14:52:59;4.72;;;2.50;;
22851;SDS011;11592;45.460;9.240;2022-11-20T14:55:28;3.67;;;2.47;;
22851;SDS011;11592;45.460;9.240;2022-11-20T14:58:21;3.92;;;2.42;;
22851;SDS011;11592;45.460;9.240;2022-11-20T15:01:11;4.10;;;2.60;;
22851;SDS011;11592;45.460;9.240;2022-11-20T15:03:40;4.10;;;2.40;;
22851;SDS011;11592;45.460;9.240;2022-11-20T15:06:07;5.18;;;2.70;;
22851;SDS011;11592;45.460;9.240;2022-11-20T15:08:38;4.35;;;2.70;;
22851;SDS011;11592;45.460;9.240;2022-11-20T15:11:15;5.53;;;3.22;;
22851;SDS011;11592;45.460;9.240;2022-11-20T15:13:44;7.43;;;3.30;;
22851;SDS011;11592;45.460;9.240;2022-11-20T15:16:18;5.97;;;2.88;;
22851;SDS011;11592;45.460;9.240;2022-11-20T15:18:47;5.70;;;3.30;;
22851;SDS011;11592;45.460;9.240;2022-11-20T15:21:15;6.40;;;3.25;;
22851;SDS011;11592;45.460;9.240;2022-11-20T15:23:43;5.88;;;3.10;;
22851;SDS011;11592;45.460;9.240;2022-11-20T15:26:11;5.47;;;3.10;;
22851;SDS011;11592;45.460;9.240;2022-11-20T15:28:46;9.57;;;3.40;;
22851;SDS011;11592;45.460;9.240;2022-11-20T15:31:17;6.28;;;3.42;;
22851;SDS011;11592;45.460;9.240;2022-11-20T15:33:45;7.35;;;3.88;;
22851;SDS011;11592;45.460;9.240;2022-11-20T15:36:13;7.53;;;3.80;;
22851;SDS011;11592;45.460;9.240;2022-11-20T15:38:40;7.80;;;3.60;;
22851;SDS011;11592;45.460;9.240;2022-11-20T15:41:07;5.80;;;3.40;;
22851;SDS011;11592;45.460;9.240;2022-11-20T15:43:34;10.70;;;3.75;;
22851;SDS011;11592;45.460;9.240;2022-11-20T15:46:23;6.57;;;3.70;;
22851;SDS011;11592;45.460;9.240;2022-11-20T15:48:55;6.93;;;3.40;;
22851;SDS011;11592;45.460;9.240;2022-11-20T15:51:30;4.50;;;3.10;;
22851;SDS011;11592;45.460;9.240;2022-11-20T15:56:26;6.60;;;3.97;;
22851;SDS011;11592;45.460;9.240;2022-11-20T15:58:53;7.93;;;4.30;;
22851;SDS011;11592;45.460;9.240;2022-11-20T16:01:20;7.35;;;3.85;;
22851;SDS011;11592;45.460;9.240;2022-11-20T16:03:48;7.15;;;4.05;;
22851;SDS011;11592;45.460;9.240;2022-11-20T16:06:15;7.55;;;3.60;;
22851;SDS011;11592;45.460;9.240;2022-11-20T16:08:45;8.18;;;3.70;;
22851;SDS011;11592;45.460;9.240;2022-11-20T16:11:13;9.75;;;3.90;;
22851;SDS011;11592;45.460;9.240;2022-11-20T16:13:41;8.80;;;4.47;;
22851;SDS011;11592;45.460;9.240;2022-11-20T16:16:31;9.13;;;3.92;;
22851;SDS011;11592;45.460;9.240;2022-11-20T16:19:02;8.73;;;4.55;;
22851;SDS011;11592;45.460;9.240;2022-11-20T16:21:30;6.53;;;3.83;;
22851;SDS011;11592;45.460;9.240;2022-11-20T16:24:01;8.23;;;4.45;;
22851;SDS011;11592;45.460;9.240;2022-11-20T16:26:32;6.00;;;3.77;;
22851;SDS011;11592;45.460;9.240;2022-11-20T16:28:59;8.52;;;4.07;;
22851;SDS011;11592;45.460;9.240;2022-11-20T16:31:28;9.75;;;4.88;;
22851;SDS011;11592;45.460;9.240;2022-11-20T16:33:56;6.82;;;4.00;;